createdAt,value
2022-09-15T00:01:01.333Z,78.39
2022-09-15T00:03:29.081Z,78.51
2022-09-15T00:05:56.693Z,78.67
2022-09-15T00:08:24.594Z,78.73
2022-09-15T00:10:59.410Z,79.03
2022-09-15T00:13:26.997Z,80.03
2022-09-15T00:15:54.458Z,79.96
2022-09-15T00:18:22.090Z,79.03
2022-09-15T00:20:49.410Z,79.02
2022-09-15T00:23:17.935Z,78.73
2022-09-15T00:25:48.510Z,78.66
2022-09-15T00:28:17.941Z,78.61
2022-09-15T00:30:48.571Z,78.98
2022-09-15T00:33:16.897Z,78.68
2022-09-15T00:35:46.190Z,78.83
2022-09-15T00:38:14.934Z,78.84
2022-09-15T00:40:45.924Z,79.08
2022-09-15T00:43:14.389Z,79.05
2022-09-15T00:45:41.941Z,79.37
2022-09-15T00:48:16.073Z,79.38
2022-09-15T00:50:50.313Z,79.72
2022-09-15T00:53:19.389Z,80.05
2022-09-15T00:55:49.410Z,79.93
2022-09-15T00:58:22.948Z,80.07
2022-09-15T01:00:56.664Z,80.39
2022-09-15T01:03:26.637Z,80.22
2022-09-15T01:05:58.998Z,80.54
2022-09-15T01:08:33.234Z,80.21
2022-09-15T01:11:01.312Z,80.52
2022-09-15T01:13:30.297Z,81.21
2022-09-15T01:16:03.901Z,80.78
2022-09-15T01:18:32.949Z,80.54
2022-09-15T01:21:06.408Z,80.68
2022-09-15T01:23:46.008Z,80.36
2022-09-15T01:26:19.510Z,80.28
2022-09-15T01:28:48.782Z,80.40
2022-09-15T01:31:26.417Z,80.34
2022-09-15T01:33:57.629Z,80.35
2022-09-15T01:36:34.613Z,80.58
2022-09-15T01:39:07.229Z,80.45
2022-09-15T01:41:39.832Z,80.62
2022-09-15T01:44:14.171Z,80.47
2022-09-15T01:46:47.450Z,80.43
2022-09-15T01:49:21.042Z,80.64
2022-09-15T01:51:51.852Z,81.19
2022-09-15T01:54:25.549Z,81.49
2022-09-15T01:56:53.133Z,81.10
2022-09-15T01:59:20.433Z,81.25
2022-09-15T02:01:57.799Z,81.14
2022-09-15T02:04:31.425Z,81.06
2022-09-15T02:07:12.126Z,81.38
2022-09-15T02:09:48.868Z,81.59
2022-09-15T02:12:27.729Z,81.57
2022-09-15T02:15:08.291Z,81.54
2022-09-15T02:17:39.908Z,81.67
2022-09-15T02:20:16.029Z,81.94
2022-09-15T02:22:50.760Z,81.85
2022-09-15T02:25:24.977Z,82.13
2022-09-15T02:27:55.419Z,82.27
2022-09-15T02:30:23.377Z,82.40
2022-09-15T02:32:57.715Z,82.30
2022-09-15T02:35:29.033Z,82.03
2022-09-15T02:37:58.252Z,82.30
2022-09-15T02:40:25.673Z,82.05
2022-09-15T02:42:56.350Z,82.04
2022-09-15T02:45:25.511Z,82.40
2022-09-15T02:47:53.152Z,82.45
2022-09-15T02:50:21.449Z,82.54
2022-09-15T02:52:48.710Z,82.41
2022-09-15T02:55:16.748Z,82.47
2022-09-15T02:57:44.110Z,82.60
2022-09-15T03:00:13.906Z,82.63
2022-09-15T03:02:43.139Z,82.59
2022-09-15T03:05:10.798Z,82.51
2022-09-15T03:07:39.953Z,82.62
2022-09-15T03:10:10.516Z,83.00
2022-09-15T03:12:41.492Z,82.87
2022-09-15T03:15:11.617Z,82.93
2022-09-15T03:17:42.034Z,82.82
2022-09-15T03:20:12.172Z,82.65
2022-09-15T03:22:40.594Z,82.21
2022-09-15T03:25:08.816Z,82.33
2022-09-15T03:27:36.850Z,82.48
2022-09-15T03:30:06.071Z,82.56
2022-09-15T03:32:33.508Z,82.71
2022-09-15T03:35:02.099Z,82.63
2022-09-15T03:37:30.514Z,82.52
2022-09-15T03:39:59.598Z,82.71
2022-09-15T03:42:31.215Z,82.90
2022-09-15T03:44:59.665Z,82.70
2022-09-15T03:47:27.051Z,82.80
2022-09-15T03:49:54.355Z,82.86
2022-09-15T03:52:21.916Z,83.33
2022-09-15T03:54:49.934Z,83.09
2022-09-15T03:57:17.872Z,83.39
2022-09-15T03:59:48.314Z,83.15
2022-09-15T04:02:16.151Z,82.79
2022-09-15T04:04:43.719Z,82.48
2022-09-15T04:07:11.330Z,82.70
2022-09-15T04:09:42.258Z,82.64
2022-09-15T04:12:11.362Z,82.08
2022-09-15T04:14:38.770Z,81.69
2022-09-15T04:17:08.059Z,81.80
2022-09-15T04:19:36.121Z,81.67
2022-09-15T04:22:03.548Z,81.35
2022-09-15T04:24:31.171Z,81.06
2022-09-15T04:26:58.577Z,81.14
2022-09-15T04:29:25.818Z,80.83
2022-09-15T04:31:54.640Z,80.69
2022-09-15T04:34:21.930Z,80.98
2022-09-15T04:36:50.471Z,80.81
2022-09-15T04:39:18.020Z,80.98
2022-09-15T04:41:45.289Z,80.79
2022-09-15T04:44:12.615Z,80.63
2022-09-15T04:46:39.945Z,80.70
2022-09-15T04:49:07.229Z,80.97
2022-09-15T04:51:34.701Z,81.44
2022-09-15T04:54:02.111Z,81.42
2022-09-15T04:56:29.589Z,80.86
2022-09-15T04:59:03.627Z,80.90
2022-09-15T05:01:34.586Z,80.75
2022-09-15T05:04:04.450Z,80.75
2022-09-15T05:06:32.239Z,80.72
2022-09-15T05:08:59.889Z,80.42
2022-09-15T05:11:29.009Z,80.72
2022-09-15T05:13:56.571Z,80.58
2022-09-15T05:16:26.495Z,80.48
2022-09-15T05:18:57.532Z,80.26
2022-09-15T05:21:25.599Z,80.55
2022-09-15T05:23:54.007Z,80.37
2022-09-15T05:26:24.715Z,80.12
2022-09-15T05:28:53.211Z,80.00
2022-09-15T05:31:24.580Z,80.12
2022-09-15T05:33:54.083Z,79.76
2022-09-15T05:36:26.270Z,79.98
2022-09-15T05:38:56.906Z,80.06
2022-09-15T05:41:25.123Z,80.10
2022-09-15T05:43:54.570Z,79.94
2022-09-15T05:46:22.103Z,79.84
2022-09-15T05:48:50.054Z,80.30
2022-09-15T05:51:21.794Z,80.25
2022-09-15T05:53:49.455Z,80.85
2022-09-15T05:58:49.923Z,81.21
2022-09-15T06:01:20.393Z,81.25
2022-09-15T06:03:48.852Z,81.17
2022-09-15T06:06:16.733Z,82.00
2022-09-15T06:08:51.860Z,81.92
2022-09-15T06:11:21.883Z,82.16
2022-09-15T06:13:49.950Z,82.16
2022-09-15T06:16:20.166Z,82.19
2022-09-15T06:18:48.672Z,82.35
2022-09-15T06:21:19.010Z,82.41
2022-09-15T06:23:50.618Z,82.07
2022-09-15T06:26:19.489Z,82.41
2022-09-15T06:28:51.929Z,82.79
2022-09-15T06:31:21.187Z,83.01
2022-09-15T06:33:52.513Z,83.15
2022-09-15T06:36:22.168Z,83.35
2022-09-15T06:38:49.730Z,83.36
2022-09-15T06:43:21.495Z,83.35
2022-09-15T06:44:37.764Z,82.88
2022-09-15T06:47:05.677Z,83.21
2022-09-15T06:49:32.978Z,83.12
2022-09-15T06:52:03.467Z,83.28
2022-09-15T06:54:32.008Z,83.62
2022-09-15T06:56:59.389Z,83.49
2022-09-15T06:59:26.772Z,83.25
2022-09-15T07:02:05.297Z,83.62
2022-09-15T07:04:34.535Z,83.35
2022-09-15T07:07:01.893Z,84.28
2022-09-15T07:09:29.326Z,84.24
2022-09-15T07:11:56.750Z,83.89
2022-09-15T07:14:24.200Z,83.25
2022-09-15T07:16:51.527Z,82.91
2022-09-15T07:19:18.931Z,82.99
2022-09-15T07:24:13.484Z,82.90
2022-09-15T07:26:41.282Z,82.77
2022-09-15T07:29:10.068Z,82.85
2022-09-15T07:31:40.203Z,82.93
2022-09-15T07:34:08.364Z,83.12
2022-09-15T07:36:35.736Z,82.89
2022-09-15T07:39:04.552Z,82.41
2022-09-15T07:41:33.269Z,81.95
2022-09-15T07:44:01.705Z,81.24
2022-09-15T07:46:32.216Z,81.65
2022-09-15T07:49:01.059Z,81.76
2022-09-15T07:51:28.936Z,81.81
2022-09-15T07:53:57.515Z,81.41
2022-09-15T07:56:25.113Z,81.50
2022-09-15T07:58:52.906Z,81.50
2022-09-15T08:01:23.449Z,81.29
2022-09-15T08:03:52.674Z,81.19
2022-09-15T08:06:23.145Z,81.37
2022-09-15T08:08:55.036Z,81.65
2022-09-15T08:11:29.083Z,81.00
2022-09-15T08:13:56.674Z,81.45
2022-09-15T08:16:25.617Z,80.95
2022-09-15T08:18:54.462Z,81.07
2022-09-15T08:21:23.079Z,81.48
2022-09-15T08:23:56.336Z,80.51
2022-09-15T08:26:24.428Z,80.48
2022-09-15T08:28:52.052Z,81.04
2022-09-15T08:31:19.654Z,80.26
2022-09-15T08:33:50.389Z,79.95
2022-09-15T08:36:19.533Z,79.91
2022-09-15T08:38:47.427Z,80.35
2022-09-15T08:41:23.433Z,80.03
2022-09-15T08:43:55.117Z,80.11
2022-09-15T08:46:30.269Z,79.48
2022-09-15T08:49:06.348Z,78.98
2022-09-15T08:51:44.098Z,78.36
2022-09-15T08:54:21.469Z,78.57
2022-09-15T08:56:49.513Z,78.36
2022-09-15T08:59:19.357Z,78.60
2022-09-15T09:01:52.939Z,77.78
2022-09-15T09:04:26.968Z,77.40
2022-09-15T09:07:04.132Z,77.43
2022-09-15T09:09:38.345Z,77.58
2022-09-15T09:12:18.705Z,77.49
2022-09-15T09:14:50.648Z,78.21
2022-09-15T09:17:22.376Z,78.19
2022-09-15T09:19:54.239Z,77.63
2022-09-15T09:22:25.958Z,77.47
2022-09-15T09:24:57.102Z,77.38
2022-09-15T09:27:29.600Z,77.26
2022-09-15T09:30:00.851Z,77.94
2022-09-15T09:32:35.691Z,76.31
2022-09-15T09:35:12.887Z,75.43
2022-09-15T09:37:42.101Z,75.28
2022-09-15T09:40:15.081Z,75.54
2022-09-15T09:42:44.213Z,76.47
2022-09-15T09:45:15.247Z,77.50
2022-09-15T09:47:44.189Z,75.48
2022-09-15T09:50:17.822Z,74.43
2022-09-15T09:52:45.354Z,74.92
2022-09-15T09:55:24.660Z,75.11
2022-09-15T09:57:52.069Z,75.40
2022-09-15T10:00:25.750Z,76.35
2022-09-15T10:02:53.276Z,75.88
2022-09-15T10:05:21.357Z,73.47
2022-09-15T10:07:49.389Z,73.34
2022-09-15T10:10:22.128Z,72.97
2022-09-15T10:12:51.311Z,72.98
2022-09-15T10:15:24.974Z,73.01
2022-09-15T10:17:54.952Z,73.04
2022-09-15T10:20:28.652Z,73.00
2022-09-15T10:23:03.155Z,72.68
2022-09-15T10:25:55.185Z,71.91
2022-09-15T10:28:24.534Z,71.92
2022-09-15T10:30:58.083Z,72.00
2022-09-15T10:33:28.713Z,72.58
2022-09-15T10:36:03.854Z,73.04
2022-09-15T10:38:34.907Z,72.97
2022-09-15T10:41:08.698Z,71.97
2022-09-15T10:43:39.478Z,71.23
2022-09-15T10:46:13.087Z,71.29
2022-09-15T10:48:47.975Z,71.73
2022-09-15T10:51:21.501Z,70.78
2022-09-15T10:54:00.065Z,69.78
2022-09-15T10:56:30.337Z,70.71
2022-09-15T10:59:20.723Z,69.56
2022-09-15T11:02:00.374Z,69.07
2022-09-15T11:04:33.139Z,69.59
2022-09-15T11:07:11.656Z,69.18
2022-09-15T11:09:46.036Z,67.38
2022-09-15T11:12:17.830Z,67.41
2022-09-15T11:14:52.721Z,67.48
2022-09-15T11:17:31.820Z,67.12
2022-09-15T11:20:08.891Z,65.83
2022-09-15T11:22:41.127Z,66.07
2022-09-15T11:25:14.652Z,66.05
2022-09-15T11:27:50.518Z,65.87
2022-09-15T11:30:23.731Z,64.92
2022-09-15T11:32:58.217Z,64.81
2022-09-15T11:35:33.718Z,64.59
2022-09-15T11:38:12.912Z,65.16
2022-09-15T11:40:49.630Z,63.71
2022-09-15T11:43:24.338Z,64.27
2022-09-15T11:45:57.138Z,64.87
2022-09-15T11:48:29.031Z,64.52
2022-09-15T11:51:02.287Z,64.57
2022-09-15T11:53:35.881Z,66.15
2022-09-15T11:56:11.120Z,63.58
2022-09-15T11:58:42.025Z,64.18
2022-09-15T12:01:18.435Z,64.15
2022-09-15T12:03:47.718Z,64.64
2022-09-15T12:06:19.858Z,63.92
2022-09-15T12:08:57.413Z,64.44
2022-09-15T12:11:30.922Z,62.73
2022-09-15T12:14:00.339Z,63.52
2022-09-15T12:16:31.688Z,63.29
2022-09-15T12:19:04.573Z,62.74
2022-09-15T12:21:49.091Z,61.82
2022-09-15T12:24:30.090Z,62.45
2022-09-15T12:27:02.211Z,61.89
2022-09-15T12:29:42.044Z,60.44
2022-09-15T12:32:17.578Z,60.04
2022-09-15T12:34:51.200Z,60.15
2022-09-15T12:37:18.932Z,60.84
2022-09-15T12:39:47.806Z,61.31
2022-09-15T12:42:21.709Z,60.42
2022-09-15T12:44:55.454Z,60.33
2022-09-15T12:47:29.686Z,60.72
2022-09-15T12:50:02.354Z,60.07
2022-09-15T12:52:29.898Z,59.82
2022-09-15T12:55:03.370Z,60.05
2022-09-15T12:57:36.137Z,59.74
2022-09-15T13:00:06.414Z,59.03
2022-09-15T13:02:46.784Z,60.24
2022-09-15T13:05:34.087Z,60.66
2022-09-15T13:08:01.512Z,59.90
2022-09-15T13:10:32.755Z,60.36
2022-09-15T13:13:11.456Z,58.14
2022-09-15T13:15:46.394Z,57.59
2022-09-15T13:18:16.569Z,57.73
2022-09-15T13:20:55.155Z,56.85
2022-09-15T13:23:27.663Z,58.15
2022-09-15T13:25:58.969Z,57.53
2022-09-15T13:28:27.758Z,57.55
2022-09-15T13:31:05.528Z,57.21
2022-09-15T13:36:22.447Z,58.08
2022-09-15T13:39:21.611Z,57.81
2022-09-15T13:42:05.079Z,57.34
2022-09-15T13:45:04.501Z,58.29
2022-09-15T13:47:43.007Z,58.23
2022-09-15T13:50:33.091Z,58.25
2022-09-15T13:53:06.176Z,57.30
2022-09-15T13:55:39.031Z,56.29
2022-09-15T14:01:02.711Z,55.20
2022-09-15T14:03:38.004Z,54.91
2022-09-15T14:06:12.718Z,55.93
2022-09-15T14:08:42.615Z,56.84
2022-09-15T14:11:15.613Z,56.63
2022-09-15T14:13:47.517Z,56.64
2022-09-15T14:16:24.045Z,56.86
2022-09-15T14:18:52.431Z,56.48
2022-09-15T14:21:24.313Z,54.70
2022-09-15T14:23:56.699Z,53.45
2022-09-15T14:26:29.612Z,53.02
2022-09-15T14:29:01.468Z,53.51
2022-09-15T14:31:34.591Z,52.96
2022-09-15T14:34:05.910Z,51.15
2022-09-15T14:36:35.228Z,51.91
2022-09-15T14:39:09.515Z,52.09
2022-09-15T14:41:37.555Z,52.02
2022-09-15T14:45:52.924Z,51.95
2022-09-15T14:47:11.703Z,52.28
2022-09-15T14:49:39.151Z,52.78
2022-09-15T14:52:24.500Z,52.90
2022-09-15T14:54:56.874Z,52.99
2022-09-15T14:57:38.040Z,53.51
2022-09-15T15:00:12.637Z,53.18
2022-09-15T15:05:39.068Z,53.18
2022-09-15T15:10:56.519Z,54.01
2022-09-15T15:13:31.000Z,53.69
2022-09-15T15:16:25.154Z,54.26
2022-09-15T15:19:04.249Z,54.98
2022-09-15T15:21:52.456Z,54.66
2022-09-15T15:24:23.941Z,54.89
2022-09-15T15:27:08.108Z,54.63
2022-09-15T15:29:57.180Z,53.51
2022-09-15T15:32:27.948Z,52.85
2022-09-15T15:35:06.511Z,53.37
2022-09-15T15:37:37.467Z,53.21
2022-09-15T15:40:07.469Z,53.50
2022-09-15T15:42:35.287Z,53.76
2022-09-15T15:45:11.760Z,56.81
2022-09-15T15:50:26.105Z,59.31
2022-09-15T15:53:04.506Z,56.54
2022-09-15T15:58:39.838Z,57.17
2022-09-15T16:01:15.107Z,57.56
2022-09-15T16:06:12.832Z,56.85
2022-09-15T16:11:17.580Z,57.43
2022-09-15T16:13:45.610Z,57.73
2022-09-15T16:16:18.599Z,57.03
2022-09-15T16:18:47.900Z,57.46
2022-09-15T16:23:49.455Z,56.54
2022-09-15T16:26:22.551Z,55.20
2022-09-15T16:33:49.186Z,54.72
2022-09-15T16:38:49.890Z,54.15
2022-09-15T16:41:33.031Z,54.53
2022-09-15T16:44:02.854Z,54.92
2022-09-15T16:46:30.933Z,54.72
2022-09-15T16:48:59.785Z,55.06
2022-09-15T16:52:03.108Z,55.46
2022-09-15T16:54:37.352Z,55.51
2022-09-15T16:57:08.801Z,54.93
2022-09-15T17:02:14.718Z,54.90
2022-09-15T17:04:48.375Z,54.39
2022-09-15T17:07:16.259Z,55.08
2022-09-15T17:12:24.026Z,54.03
2022-09-15T17:17:26.556Z,54.45
2022-09-15T17:22:21.644Z,54.85
2022-09-15T17:27:45.159Z,56.02
2022-09-15T17:30:38.382Z,55.78
2022-09-15T17:33:11.335Z,55.19
2022-09-15T17:41:00.374Z,54.18
2022-09-15T17:43:28.981Z,55.10
2022-09-15T17:48:42.059Z,54.35
2022-09-15T17:53:47.284Z,54.98
2022-09-15T17:58:45.529Z,54.35
2022-09-15T18:03:43.959Z,55.93
2022-09-15T18:06:11.664Z,55.94
2022-09-15T18:11:14.081Z,55.40
2022-09-15T18:13:41.408Z,56.35
2022-09-15T18:16:24.757Z,56.96
2022-09-15T18:18:58.259Z,57.41
2022-09-15T18:24:16.881Z,56.99
2022-09-15T18:34:23.972Z,55.26
2022-09-15T18:36:51.901Z,55.27
2022-09-15T18:41:52.818Z,54.95
2022-09-15T18:44:20.363Z,55.43
2022-09-15T18:46:50.807Z,54.57
2022-09-15T18:51:59.242Z,55.13
2022-09-15T18:57:23.211Z,55.49
2022-09-15T18:59:50.541Z,55.50
2022-09-15T19:02:19.398Z,55.67
2022-09-15T19:04:46.552Z,55.14
2022-09-15T19:07:13.912Z,55.43
2022-09-15T19:09:43.994Z,55.38
2022-09-15T19:12:11.430Z,55.27
2022-09-15T19:14:42.192Z,54.96
2022-09-15T19:17:18.048Z,55.29
2022-09-15T19:19:46.910Z,55.60
2022-09-15T19:22:25.721Z,55.61
2022-09-15T19:24:53.756Z,54.87
2022-09-15T19:27:47.962Z,53.34
2022-09-15T19:30:18.442Z,53.20
2022-09-15T19:32:46.544Z,53.84
2022-09-15T19:35:33.396Z,54.08
2022-09-15T19:38:02.549Z,54.61
2022-09-15T19:40:30.187Z,54.36
2022-09-15T19:42:57.369Z,54.79
2022-09-15T19:45:24.780Z,55.05
2022-09-15T19:47:52.231Z,54.50
2022-09-15T19:50:22.441Z,54.68
2022-09-15T19:52:49.876Z,54.73
2022-09-15T19:55:20.054Z,55.50
2022-09-15T19:57:48.029Z,54.79
2022-09-15T20:00:15.631Z,55.18
2022-09-15T20:02:43.182Z,54.93
2022-09-15T20:05:10.672Z,53.74
2022-09-15T20:07:38.358Z,53.71
2022-09-15T20:10:06.991Z,54.42
2022-09-15T20:12:34.571Z,55.49
2022-09-15T20:17:36.247Z,54.39
2022-09-15T20:20:06.911Z,53.38
2022-09-15T20:22:38.693Z,53.51
2022-09-15T20:25:06.388Z,53.48
2022-09-15T20:27:45.831Z,53.19
2022-09-15T20:30:25.212Z,53.49
2022-09-15T20:32:53.372Z,54.07
2022-09-15T20:40:32.593Z,54.34
2022-09-15T20:42:59.708Z,54.56
2022-09-15T20:45:27.789Z,55.28
2022-09-15T20:47:55.127Z,55.11
2022-09-15T20:50:22.768Z,55.38
2022-09-15T20:57:45.616Z,55.50
2022-09-15T21:02:42.534Z,53.99
2022-09-15T21:05:10.085Z,53.71
2022-09-15T21:07:37.821Z,53.87
2022-09-15T21:10:05.949Z,54.56
2022-09-15T21:12:35.777Z,54.02
2022-09-15T21:15:03.670Z,54.56
2022-09-15T21:17:31.121Z,54.01
2022-09-15T21:20:03.961Z,54.16
2022-09-15T21:22:32.591Z,54.37
2022-09-15T21:25:01.690Z,54.58
2022-09-15T21:27:49.091Z,55.11
2022-09-15T21:30:17.341Z,55.43
2022-09-15T21:32:44.834Z,55.24
2022-09-15T21:37:39.722Z,55.31
2022-09-15T21:40:07.804Z,55.47
2022-09-15T21:42:36.256Z,56.00
2022-09-15T21:47:32.943Z,55.85
2022-09-15T21:50:00.893Z,56.51
2022-09-15T21:52:48.432Z,57.27
2022-09-15T21:55:17.554Z,57.50
2022-09-15T21:58:07.576Z,58.13
2022-09-15T22:00:55.568Z,57.99
2022-09-15T22:03:33.918Z,57.29
2022-09-15T22:08:31.401Z,56.81
2022-09-15T22:11:13.981Z,56.99
2022-09-15T22:13:45.589Z,57.12
2022-09-15T22:16:19.473Z,57.47
2022-09-15T22:18:48.412Z,57.66
2022-09-15T22:21:24.510Z,58.15
2022-09-15T22:23:53.915Z,57.68
2022-09-15T22:31:20.341Z,58.17
2022-09-15T22:33:47.841Z,58.21
2022-09-15T22:36:16.907Z,57.85
2022-09-15T22:38:49.005Z,57.47
2022-09-15T22:41:20.789Z,57.39
2022-09-15T22:43:50.220Z,56.97
2022-09-15T22:54:20.228Z,57.79
2022-09-15T22:57:20.747Z,58.32
2022-09-15T22:59:50.044Z,58.56
2022-09-15T23:02:41.406Z,59.23
2022-09-15T23:05:11.177Z,59.49
2022-09-15T23:07:38.046Z,59.46
2022-09-15T23:10:10.688Z,59.54
2022-09-15T23:12:38.103Z,59.56
2022-09-15T23:15:06.459Z,59.93
2022-09-15T23:17:34.933Z,59.95
2022-09-15T23:20:02.371Z,58.89
2022-09-15T23:22:29.772Z,58.78
2022-09-15T23:25:00.991Z,59.14
2022-09-15T23:29:54.453Z,59.18
2022-09-15T23:32:21.826Z,58.90
2022-09-15T23:39:46.228Z,59.02
2022-09-15T23:44:42.475Z,59.08
2022-09-15T23:47:10.847Z,58.72
2022-09-15T23:49:39.069Z,58.95
2022-09-15T23:54:49.432Z,59.91
2022-09-15T23:57:17.503Z,59.40
2022-09-15T23:59:45.085Z,58.77
